Time;durP1;ratioP1;P1;durP2;ratioP2;P2;SDS_P1;SDS_P2;PMS_P1;PMS_P2;Temp;Humidity;BMP_temperature;BMP_pressure;BME280_temperature;BME280_humidity;BME280_pressure;Samples;Min_cycle;Max_cycle;Signal;HPM_P1;HPM_P2
2022/03/14 00:01:33;;;;;;;2.38;1.33;;;;;;;10.59;61.24;101568.16;4990477;28;20038;-87
2022/03/14 00:03:59;;;;;;;1.90;1.38;;;;;;;10.59;61.10;101564.69;4990454;28;20031;-87
2022/03/14 00:06:25;;;;;;;2.38;1.50;;;;;;;10.56;61.68;101569.94;4991962;28;20120;-87
2022/03/14 00:08:57;;;;;;;2.30;1.50;;;;;;;10.53;61.80;101573.44;4991905;28;20053;-88
2022/03/14 00:11:23;;;;;;;;;;;;;;;10.57;59.84;101577.72;4987366;28;20034;-88
2022/03/14 00:13:50;;;;;;;2.22;1.50;;;;;;;10.53;61.44;101575.19;4993529;28;19928;-88
2022/03/14 00:16:25;;;;;;;2.03;1.50;;;;;;;10.50;61.52;101585.63;4989270;28;20480;-88
2022/03/14 00:18:53;;;;;;;2.45;1.42;;;;;;;10.50;61.34;101583.91;4986921;28;20038;-88
2022/03/14 00:21:20;;;;;;;2.25;1.60;;;;;;;10.50;61.55;101591.69;4981152;28;20030;-88
2022/03/14 00:23:46;;;;;;;2.63;1.70;;;;;;;10.48;61.84;101596.06;4993663;28;20038;-87
2022/03/14 00:26:11;;;;;;;2.00;1.50;;;;;;;10.47;61.52;101591.75;4985227;28;20048;-87
2022/03/14 00:28:37;;;;;;;2.60;1.65;;;;;;;10.48;61.67;101596.06;4991599;28;20026;-87
2022/03/14 00:31:02;;;;;;;2.45;1.75;;;;;;;10.47;62.35;101600.38;4987218;28;20088;-88
2022/03/14 00:33:27;;;;;;;2.83;1.85;;;;;;;10.44;61.92;101603.03;4990522;28;20466;-86
2022/03/14 00:35:55;;;;;;;2.80;1.70;;;;;;;10.43;61.88;101596.09;4988026;28;20093;-87
2022/03/14 00:38:20;;;;;;;2.35;1.80;;;;;;;10.43;61.70;101606.50;4953977;28;20134;-88
2022/03/14 00:40:46;;;;;;;2.95;1.67;;;;;;;10.43;62.17;101611.72;4953945;28;20026;-87
2022/03/14 00:43:11;;;;;;;2.88;1.83;;;;;;;10.40;62.36;101606.56;4969734;28;20027;-87
2022/03/14 00:45:37;;;;;;;3.05;1.67;;;;;;;10.40;62.39;101616.97;4970330;28;20038;-88
2022/03/14 00:48:02;;;;;;;3.00;1.90;;;;;;;10.42;62.28;101620.38;4971883;28;20529;-88
2022/03/14 00:50:27;;;;;;;2.78;1.70;;;;;;;10.41;62.16;101618.69;4972054;28;20037;-88
2022/03/14 00:52:52;;;;;;;2.40;1.65;;;;;;;10.40;62.55;101627.38;4971302;28;20045;-87
2022/03/14 00:55:19;;;;;;;2.50;1.73;;;;;;;10.39;62.64;101625.66;4971032;28;20045;-87
2022/03/14 00:57:44;;;;;;;3.15;1.70;;;;;;;10.37;62.66;101621.28;4971247;28;20035;-88
2022/03/14 01:00:10;;;;;;;3.33;1.90;;;;;;;10.36;62.58;101629.97;4972007;28;20041;-87
2022/03/14 01:02:35;;;;;;;2.95;1.73;;;;;;;10.35;62.70;101634.34;4953673;28;20023;-88
2022/03/14 01:05:01;;;;;;;3.05;1.98;;;;;;;10.33;62.76;101634.34;4970684;28;20402;-87
2022/03/14 01:07:26;;;;;;;2.63;1.60;;;;;;;10.34;62.76;101640.41;4970504;28;20062;-87
2022/03/14 01:09:51;;;;;;;2.70;1.75;;;;;;;10.32;63.17;101644.78;4970738;28;20086;-87
2022/03/14 01:12:16;;;;;;;2.65;1.90;;;;;;;10.31;63.07;101648.25;4970646;28;20065;-88
2022/03/14 01:14:43;;;;;;;2.65;1.67;;;;;;;10.31;62.82;101653.44;4970123;28;20397;-88
2022/03/14 01:17:09;;;;;;;2.33;1.67;;;;;;;10.29;62.96;101650.00;4953659;28;20066;-87
2022/03/14 01:19:38;;;;;;;2.70;1.83;;;;;;;10.27;63.39;101651.75;4952600;28;20073;-88
2022/03/14 01:22:10;;;;;;;2.78;1.83;;;;;;;10.24;63.77;101660.47;4953236;28;20030;-88
2022/03/14 01:24:38;;;;;;;2.75;1.73;;;;;;;10.24;63.57;101663.06;4970012;28;20110;-88
2022/03/14 01:27:03;;;;;;;2.60;1.70;;;;;;;10.24;63.41;101657.88;4969453;28;20536;-87
2022/03/14 01:29:28;;;;;;;2.95;1.75;;;;;;;10.25;63.65;101662.19;4970592;28;20034;-87
2022/03/14 01:31:54;;;;;;;3.83;1.88;;;;;;;10.24;63.40;101657.00;4969730;28;20031;-86
2022/03/14 01:34:20;;;;;;;5.20;2.00;;;;;;;10.24;63.58;101667.41;4970152;28;20030;-88
2022/03/14 01:36:45;;;;;;;3.83;1.95;;;;;;;10.22;63.76;101669.16;4976200;28;20050;-87
2022/03/14 01:39:10;;;;;;;3.42;2.00;;;;;;;10.19;64.02;101677.84;4988908;28;20027;-87
2022/03/14 01:41:36;;;;;;;2.58;2.00;;;;;;;10.17;64.32;101672.69;4987224;28;20396;-88
2022/03/14 01:44:02;;;;;;;2.67;1.80;;;;;;;10.14;64.27;101669.25;4988644;28;20046;-89
2022/03/14 01:46:27;;;;;;;3.55;2.10;;;;;;;10.12;64.08;101674.44;4987994;28;20390;-87
2022/03/14 01:48:53;;;;;;;3.30;2.08;;;;;;;10.10;64.40;101676.19;4987397;28;20022;-87
2022/03/14 01:51:20;;;;;;;4.35;2.90;;;;;;;10.09;64.56;101666.69;4990196;28;20485;-88
2022/03/14 01:53:46;;;;;;;4.18;2.88;;;;;;;10.08;64.79;101677.94;4984006;28;20027;-87
2022/03/14 01:56:12;;;;;;;4.63;2.70;;;;;;;10.08;64.80;101677.09;4987067;28;21711;-87
2022/03/14 01:58:38;;;;;;;3.85;2.60;;;;;;;10.07;64.87;101681.47;4987656;28;20077;-87
2022/03/14 02:01:05;;;;;;;3.50;2.50;;;;;;;10.08;64.68;101687.50;4986008;28;21194;-87
2022/03/14 02:03:30;;;;;;;3.70;2.33;;;;;;;10.09;64.91;101682.28;4987123;28;20030;-89
2022/03/14 02:05:55;;;;;;;3.70;2.47;;;;;;;10.06;65.01;101690.13;4988459;28;20077;-87
2022/03/14 02:08:21;;;;;;;4.20;2.92;;;;;;;10.05;65.16;101685.81;4989546;28;20026;-88
2022/03/14 02:10:47;;;;;;;4.90;2.63;;;;;;;10.05;65.06;101688.41;4989781;28;20030;-88
2022/03/14 02:13:13;;;;;;;3.70;2.38;;;;;;;10.05;65.31;101688.41;4988579;28;20027;-87
2022/03/14 02:15:39;;;;;;;3.53;2.22;;;;;;;10.06;65.34;101684.94;4987270;28;20041;-87
2022/03/14 02:18:05;;;;;;;3.90;2.08;;;;;;;10.06;65.26;101690.13;4984854;28;20432;-87
2022/03/14 02:20:31;;;;;;;3.17;2.13;;;;;;;10.05;65.26;101688.41;4986221;28;20500;-87
2022/03/14 02:22:56;;;;;;;3.13;1.95;;;;;;;10.05;65.46;101698.81;4985529;28;20042;-87
2022/03/14 02:25:22;;;;;;;3.08;2.00;;;;;;;10.05;65.56;101692.72;4989027;28;20092;-87
2022/03/14 02:27:48;;;;;;;3.33;2.13;;;;;;;10.05;65.54;101695.34;4988452;28;20033;-87
2022/03/14 02:30:13;;;;;;;3.10;2.10;;;;;;;10.02;65.94;101701.44;4984093;28;20023;-88
2022/03/14 02:32:41;;;;;;;2.88;1.90;;;;;;;10.01;65.29;101702.31;4988154;28;20394;-87
2022/03/14 02:35:08;;;;;;;2.80;2.20;;;;;;;10.01;66.05;101707.50;4981724;28;20022;-87
2022/03/14 02:37:34;;;;;;;3.10;2.20;;;;;;;10.00;66.07;101711.81;4989230;28;20057;-87
2022/03/14 02:39:59;;;;;;;2.55;2.00;;;;;;;10.00;66.19;101708.38;4984739;28;20030;-88
2022/03/14 02:42:24;;;;;;;3.45;2.25;;;;;;;9.99;66.38;101709.25;4988782;28;20114;-87
2022/03/14 02:44:49;;;;;;;3.47;2.45;;;;;;;10.00;65.74;101703.19;4987153;28;20034;-87
2022/03/14 02:47:15;;;;;;;3.28;2.13;;;;;;;10.00;65.94;101713.56;4988356;28;20018;-87
2022/03/14 02:49:40;;;;;;;3.40;2.10;;;;;;;9.98;65.99;101717.94;4988995;28;20029;-87
2022/03/14 02:52:06;;;;;;;3.30;2.35;;;;;;;9.98;65.98;101728.31;4989291;28;20023;-87
2022/03/14 02:54:31;;;;;;;4.45;2.40;;;;;;;9.97;66.31;101724.00;4988104;28;20033;-87
2022/03/14 02:56:57;;;;;;;3.72;2.22;;;;;;;9.95;66.35;101729.22;4983466;28;20026;-88
2022/03/14 02:59:22;;;;;;;3.38;2.30;;;;;;;9.97;66.28;101737.88;4990080;28;20085;-86
2022/03/14 03:01:48;;;;;;;3.90;2.20;;;;;;;9.98;66.30;101730.94;4988349;28;20389;-86
2022/03/14 03:04:13;;;;;;;2.85;2.25;;;;;;;9.95;66.40;101731.81;4990589;28;20090;-87
2022/03/14 03:06:39;;;;;;;4.05;2.55;;;;;;;9.95;66.21;101734.44;4991608;28;20076;-87
2022/03/14 03:09:04;;;;;;;3.83;2.65;;;;;;;9.94;66.62;101739.63;4991928;28;20022;-87
2022/03/14 03:11:32;;;;;;;3.80;2.65;;;;;;;9.93;66.39;101753.50;4989332;28;20030;-86
2022/03/14 03:13:59;;;;;;;4.55;2.78;;;;;;;9.91;66.58;101740.53;4990722;28;20145;-87
2022/03/14 03:16:24;;;;;;;5.18;3.05;;;;;;;9.90;66.27;101754.38;4984722;28;20045;-86
2022/03/14 03:18:49;;;;;;;3.53;2.60;;;;;;;9.90;66.40;101757.00;4990810;28;20038;-87
2022/03/14 03:21:16;;;;;;;3.50;2.40;;;;;;;9.91;66.20;101763.03;4989142;28;20073;-86
2022/03/14 03:23:42;;;;;;;3.75;2.53;;;;;;;9.90;66.16;101771.72;4982425;28;20026;-87
2022/03/14 03:26:08;;;;;;;4.05;2.45;;;;;;;9.86;66.36;101773.47;4990260;28;20034;-86
2022/03/14 03:28:37;;;;;;;4.13;2.58;;;;;;;9.83;66.32;101782.16;4989440;28;20022;-87
2022/03/14 03:31:22;;;;;;;4.00;3.00;;;;;;;9.83;65.71;101787.38;4989503;28;20105;-87
2022/03/14 03:33:50;;;;;;;3.85;2.80;;;;;;;9.82;67.13;101788.22;4989782;28;20038;-87
2022/03/14 03:36:15;;;;;;;3.83;2.50;;;;;;;9.84;66.69;101801.22;4988537;28;20042;-86
2022/03/14 03:38:40;;;;;;;3.50;2.50;;;;;;;9.82;66.57;101803.81;4990228;28;20026;-86
2022/03/14 03:41:06;;;;;;;3.90;2.80;;;;;;;9.79;66.50;101806.44;4988571;28;20033;-86
2022/03/14 03:43:31;;;;;;;3.78;2.50;;;;;;;9.80;66.56;101815.13;4987200;28;20692;-86
2022/03/14 03:45:57;;;;;;;3.67;2.50;;;;;;;9.78;66.68;101827.25;4992213;28;20045;-87
2022/03/14 03:48:23;;;;;;;4.03;2.80;;;;;;;9.75;66.63;101817.72;4989402;28;20650;-86
2022/03/14 03:50:48;;;;;;;4.22;2.38;;;;;;;9.72;66.78;101829.00;4990008;28;20117;-86
2022/03/14 03:53:14;;;;;;;2.95;2.40;;;;;;;9.70;67.66;101838.53;4987227;28;20022;-86
2022/03/14 03:55:39;;;;;;;6.72;2.40;;;;;;;9.66;67.76;101846.38;4982508;28;20049;-86
2022/03/14 03:58:05;;;;;;;3.03;2.25;;;;;;;9.65;68.27;101852.44;4990073;28;20109;-86
2022/03/14 04:00:30;;;;;;;4.40;2.25;;;;;;;9.59;68.76;101853.34;4984771;28;20018;-86
2022/03/14 04:02:56;;;;;;;3.25;2.58;;;;;;;9.56;68.92;101849.00;4991542;28;20113;-86
2022/03/14 04:05:22;;;;;;;3.85;2.78;;;;;;;9.49;68.85;101855.13;4990636;28;20164;-86
2022/03/14 04:07:48;;;;;;;4.25;2.72;;;;;;;9.45;68.95;101860.34;4992532;28;20112;-86
2022/03/14 04:10:14;;;;;;;3.25;2.40;;;;;;;9.42;69.12;101871.59;4982382;28;20030;-87
2022/03/14 04:12:40;;;;;;;5.03;2.40;;;;;;;9.39;69.25;101882.88;4990766;28;20019;-86
2022/03/14 04:15:09;;;;;;;4.00;2.65;;;;;;;9.37;69.21;101881.16;4989838;28;20060;-86
2022/03/14 04:17:38;;;;;;;4.43;2.80;;;;;;;9.38;69.16;101880.28;4989930;28;20018;-86
2022/03/14 04:20:05;;;;;;;10.57;2.97;;;;;;;9.39;69.77;101889.81;4991367;28;20033;-86
2022/03/14 04:22:32;;;;;;;3.80;2.83;;;;;;;9.36;69.40;101895.00;4987551;28;20026;-85
2022/03/14 04:24:58;;;;;;;4.40;3.00;;;;;;;9.32;70.01;101898.47;4990855;28;20018;-86
2022/03/14 04:27:24;;;;;;;3.83;3.20;;;;;;;9.25;70.07;101908.03;4988351;28;20109;-86
2022/03/14 04:29:50;;;;;;;4.50;2.75;;;;;;;9.19;70.30;101901.13;4991353;28;20114;-85
2022/03/14 04:32:15;;;;;;;4.80;3.13;;;;;;;9.19;70.36;101908.03;4988157;28;20027;-86
2022/03/14 04:34:40;;;;;;;7.10;3.40;;;;;;;9.15;70.66;101920.16;4987813;28;20038;-86
2022/03/14 04:37:06;;;;;;;4.90;3.25;;;;;;;9.14;71.03;101920.19;4990628;28;20494;-86
2022/03/14 04:39:31;;;;;;;4.75;3.05;;;;;;;9.08;71.14;101913.25;4971994;28;20074;-86
2022/03/14 04:41:56;;;;;;;5.05;3.10;;;;;;;9.05;71.62;101918.47;4988911;28;20098;-86
2022/03/14 04:44:22;;;;;;;5.20;3.28;;;;;;;9.00;71.88;101925.41;4989499;28;20030;-86
2022/03/14 04:46:48;;;;;;;6.22;3.53;;;;;;;8.99;72.10;101931.44;4990670;28;20462;-86
2022/03/14 04:49:14;;;;;;;5.15;3.80;;;;;;;8.94;72.25;101934.91;4990903;28;20033;-85
2022/03/14 04:51:40;;;;;;;6.35;3.50;;;;;;;8.92;72.40;101938.38;4991697;28;20117;-86
2022/03/14 04:54:06;;;;;;;5.93;3.75;;;;;;;8.86;72.87;101931.47;4972285;28;20105;-86
2022/03/14 04:56:31;;;;;;;6.40;3.88;;;;;;;8.85;72.83;101942.72;4989619;28;20026;-86
2022/03/14 04:58:57;;;;;;;6.28;4.03;;;;;;;8.83;72.93;101939.25;4989659;28;20488;-86
2022/03/14 05:01:23;;;;;;;6.22;4.05;;;;;;;8.78;73.06;101944.47;4989608;28;20026;-86
2022/03/14 05:03:49;;;;;;;5.80;4.00;;;;;;;8.77;73.11;101957.41;4989942;28;20529;-86
2022/03/14 05:06:16;;;;;;;6.32;4.32;;;;;;;8.74;73.36;101960.88;4990157;28;20057;-89
2022/03/14 05:08:42;;;;;;;5.68;4.07;;;;;;;8.73;73.39;101958.28;4989722;28;20034;-87
2022/03/14 05:11:08;;;;;;;6.57;4.13;;;;;;;8.73;73.42;101968.66;4990577;28;20029;-87
2022/03/14 05:13:34;;;;;;;6.10;4.18;;;;;;;8.71;73.85;101978.19;4992107;28;20034;-86
2022/03/14 05:15:59;;;;;;;7.75;4.65;;;;;;;8.70;73.47;101986.84;4989961;28;20033;-87
2022/03/14 05:18:25;;;;;;;7.47;4.70;;;;;;;8.71;73.43;101986.81;4989167;28;20441;-87
2022/03/14 05:20:51;;;;;;;6.55;4.72;;;;;;;8.68;73.68;101989.41;4988992;28;20030;-87
2022/03/14 05:23:16;;;;;;;6.68;4.88;;;;;;;8.67;73.54;101997.19;4991365;28;20425;-87
2022/03/14 05:25:41;;;;;;;7.35;4.10;;;;;;;8.68;73.48;101992.00;4991183;28;20045;-87
2022/03/14 05:28:06;;;;;;;6.43;4.30;;;;;;;8.69;73.49;102000.66;4989906;28;20682;-87
2022/03/14 05:30:32;;;;;;;5.93;4.68;;;;;;;8.67;73.35;102007.56;4972484;28;20038;-86
2022/03/14 05:32:57;;;;;;;10.43;5.35;;;;;;;8.67;73.68;102005.84;4991035;28;20133;-87
2022/03/14 05:35:23;;;;;;;7.78;4.88;;;;;;;8.64;73.43;102019.69;4989359;28;20031;-87
2022/03/14 05:37:48;;;;;;;8.00;5.03;;;;;;;8.64;73.38;102022.28;4973499;28;20042;-88
2022/03/14 05:40:17;;;;;;;7.63;5.35;;;;;;;8.64;73.56;102032.66;4987994;28;20171;-87
2022/03/14 05:42:45;;;;;;;10.75;5.38;;;;;;;8.63;73.48;102033.50;4987151;28;20105;-87
2022/03/14 05:45:12;;;;;;;10.23;5.43;;;;;;;8.64;73.84;102035.25;4982830;28;20422;-87
2022/03/14 05:47:38;;;;;;;9.13;5.90;;;;;;;8.61;73.71;102040.44;4988347;28;20034;-86
2022/03/14 05:50:03;;;;;;;8.98;5.65;;;;;;;8.61;73.87;102043.00;4985759;28;20409;-87
2022/03/14 05:52:29;;;;;;;7.97;5.82;;;;;;;8.61;73.48;102040.44;4988520;28;20038;-87
2022/03/14 05:54:54;;;;;;;8.55;5.55;;;;;;;8.61;73.72;102049.94;4988690;28;20095;-86
2022/03/14 05:57:21;;;;;;;9.13;5.72;;;;;;;8.60;73.67;102059.44;4988724;28;20503;-87
2022/03/14 05:59:48;;;;;;;8.68;5.93;;;;;;;8.58;73.75;102062.91;4984534;28;20050;-87
2022/03/14 06:02:21;;;;;;;9.57;6.03;;;;;;;8.59;73.51;102070.69;4989054;28;20026;-87
2022/03/14 06:04:53;;;;;;;8.85;6.15;;;;;;;8.59;73.54;102072.41;4987429;28;20023;-87
2022/03/14 06:07:21;;;;;;;10.95;6.07;;;;;;;8.60;73.54;102072.41;4985045;28;20033;-87
2022/03/14 06:09:49;;;;;;;10.45;6.20;;;;;;;8.60;73.70;102077.59;4986904;28;20022;-87
2022/03/14 06:12:28;;;;;;;10.13;6.78;;;;;;;8.59;73.31;102081.06;4986341;28;20243;-87
2022/03/14 06:14:59;;;;;;;11.13;6.57;;;;;;;8.58;73.73;102084.50;4988508;28;20034;-87
2022/03/14 06:17:25;;;;;;;11.77;7.20;;;;;;;8.57;73.73;102080.19;4989901;28;20030;-87
2022/03/14 06:19:51;;;;;;;12.38;7.25;;;;;;;8.58;73.67;102087.09;4988694;28;20126;-87
2022/03/14 06:22:18;;;;;;;11.60;7.32;;;;;;;8.58;73.65;102092.28;4990847;28;20037;-87
2022/03/14 06:24:46;;;;;;;14.27;7.32;;;;;;;8.59;73.90;102096.63;4987814;28;20037;-87
2022/03/14 06:27:12;;;;;;;10.02;7.13;;;;;;;8.60;73.68;102106.13;4986024;28;20473;-86
2022/03/14 06:29:37;;;;;;;11.48;7.47;;;;;;;8.62;73.92;102107.00;4990946;28;20071;-86
2022/03/14 06:32:04;;;;;;;13.05;7.95;;;;;;;8.63;73.53;102111.34;4989056;28;20045;-87
2022/03/14 06:34:30;;;;;;;11.93;7.57;;;;;;;8.64;73.72;102113.06;4990971;28;20026;-86
2022/03/14 06:36:55;;;;;;;15.00;7.93;;;;;;;8.65;73.92;102124.31;4984335;28;20035;-86
2022/03/14 06:39:21;;;;;;;12.38;8.40;;;;;;;8.66;73.97;102126.03;4969284;28;20169;-87
2022/03/14 06:41:46;;;;;;;13.27;8.68;;;;;;;8.68;73.71;102123.47;4972720;28;20034;-87
2022/03/14 06:44:11;;;;;;;13.65;8.02;;;;;;;8.67;73.86;102126.91;4971744;28;20023;-86
2022/03/14 06:46:37;;;;;;;17.27;8.55;;;;;;;8.67;74.04;102132.97;4972191;28;20470;-86
2022/03/14 06:49:03;;;;;;;12.30;8.57;;;;;;;8.68;73.79;102128.66;4972974;28;20125;-86
2022/03/14 06:51:28;;;;;;;13.75;9.10;;;;;;;8.69;73.86;102130.38;4972603;28;20034;-86
2022/03/14 06:53:53;;;;;;;14.95;9.35;;;;;;;8.70;73.69;102138.16;4955880;28;20039;-87
2022/03/14 06:56:20;;;;;;;13.20;9.18;;;;;;;8.72;73.73;102143.34;4975123;28;20023;-87
2022/03/14 06:58:46;;;;;;;13.48;9.50;;;;;;;8.75;73.48;102145.94;4970589;28;20030;-86
2022/03/14 07:01:12;;;;;;;14.65;9.68;;;;;;;8.77;73.37;102152.00;4973485;28;20037;-87
2022/03/14 07:03:38;;;;;;;17.52;9.68;;;;;;;8.78;73.56;102146.84;4972730;28;20027;-87
2022/03/14 07:06:03;;;;;;;17.15;9.45;;;;;;;8.80;73.37;102155.47;4971274;28;20029;-87
2022/03/14 07:08:28;;;;;;;14.25;9.23;;;;;;;8.82;73.49;102158.09;4972627;28;20031;-87
2022/03/14 07:10:54;;;;;;;13.90;9.05;;;;;;;8.85;73.48;102157.22;4973351;28;20125;-87
2022/03/14 07:13:19;;;;;;;13.23;9.10;;;;;;;8.88;73.25;102163.28;4975300;28;20045;-87
2022/03/14 07:15:45;;;;;;;14.70;8.88;;;;;;;8.88;73.26;102168.47;4974887;28;20023;-87
2022/03/14 07:18:11;;;;;;;14.60;9.27;;;;;;;8.92;72.89;102169.38;4974726;28;20471;-87
2022/03/14 07:20:36;;;;;;;16.85;9.52;;;;;;;8.93;73.19;102166.75;4975409;28;20026;-87
2022/03/14 07:23:02;;;;;;;16.35;9.40;;;;;;;8.96;72.97;102177.16;4973766;28;20026;-88
2022/03/14 07:25:31;;;;;;;15.05;9.27;;;;;;;8.99;72.84;102170.25;4974022;28;20114;-87
2022/03/14 07:28:03;;;;;;;15.95;9.73;;;;;;;9.01;72.61;102173.72;4974110;28;20050;-87
2022/03/14 07:30:28;;;;;;;15.77;8.55;;;;;;;9.05;72.73;102180.66;4974631;28;20085;-86
2022/03/14 07:32:54;;;;;;;16.17;9.63;;;;;;;9.06;72.56;102177.16;4973299;28;20035;-87
2022/03/14 07:35:20;;;;;;;14.68;9.15;;;;;;;9.08;72.66;102178.03;4975054;28;20491;-86
2022/03/14 07:37:46;;;;;;;16.30;8.93;;;;;;;9.10;72.43;102171.13;4972981;28;20043;-87
2022/03/14 07:40:13;;;;;;;17.65;9.18;;;;;;;9.13;71.93;102173.72;4974377;28;20145;-87
2022/03/14 07:42:43;;;;;;;14.02;8.95;;;;;;;9.15;71.75;102176.31;4972120;28;20035;-87
2022/03/14 07:45:10;;;;;;;16.33;9.23;;;;;;;9.15;71.72;102172.00;4972756;28;20042;-86
2022/03/14 07:47:36;;;;;;;21.27;9.93;;;;;;;9.16;71.63;102189.31;4973939;28;20018;-87
2022/03/14 07:50:03;;;;;;;20.17;9.02;;;;;;;9.17;71.88;102190.19;4974947;28;20054;-87
2022/03/14 07:52:28;;;;;;;17.45;9.35;;;;;;;9.19;71.48;102191.06;4974838;28;20027;-86
2022/03/14 07:54:53;;;;;;;14.50;9.07;;;;;;;9.18;71.73;102197.09;4973538;28;20386;-86
2022/03/14 07:57:18;;;;;;;15.95;9.32;;;;;;;9.21;71.38;102192.81;4974016;28;20038;-86
2022/03/14 07:59:46;;;;;;;19.27;9.32;;;;;;;9.25;71.46;102199.72;4956517;28;20019;-86
2022/03/14 08:02:12;;;;;;;16.83;10.07;;;;;;;9.26;71.59;102206.63;4956888;28;20064;-86
2022/03/14 08:04:39;;;;;;;13.75;9.15;;;;;;;9.29;71.51;102208.41;4973600;28;20026;-87
2022/03/14 08:07:05;;;;;;;16.98;9.80;;;;;;;9.32;70.97;102217.91;4957352;28;20561;-86
2022/03/14 08:09:30;;;;;;;17.75;10.10;;;;;;;9.35;70.98;102217.91;4957255;28;20058;-87
2022/03/14 08:11:58;;;;;;;17.33;9.95;;;;;;;9.39;70.72;102214.47;4972189;28;20033;-87
2022/03/14 08:14:24;;;;;;;17.15;9.75;;;;;;;9.41;70.83;102225.69;4954989;28;20081;-87
2022/03/14 08:16:49;;;;;;;20.00;10.80;;;;;;;9.42;70.72;102227.44;4973367;28;20428;-87
2022/03/14 08:19:14;;;;;;;21.40;10.52;;;;;;;9.45;70.68;102232.66;4972361;28;20037;-87
2022/03/14 08:21:40;;;;;;;18.48;10.13;;;;;;;9.48;70.33;102239.59;4956538;28;20121;-86
2022/03/14 08:24:06;;;;;;;17.83;10.57;;;;;;;9.47;69.85;102243.91;4973479;28;20069;-86
2022/03/14 08:26:33;;;;;;;19.65;10.70;;;;;;;9.47;69.91;102249.09;4971924;28;20525;-86
2022/03/14 08:29:00;;;;;;;16.80;10.45;;;;;;;9.44;70.24;102256.88;4956584;28;20027;-86
2022/03/14 08:31:25;;;;;;;19.92;10.73;;;;;;;9.46;70.18;102257.75;4972999;28;20442;-86
2022/03/14 08:33:51;;;;;;;20.67;11.95;;;;;;;9.47;69.72;102266.44;4972973;28;20042;-87
2022/03/14 08:36:20;;;;;;;20.50;10.80;;;;;;;9.46;70.17;102259.50;4976160;28;20401;-87
2022/03/14 08:38:48;;;;;;;23.88;11.20;;;;;;;9.46;70.44;102262.94;4993392;28;20377;-86
2022/03/14 08:41:16;;;;;;;18.20;11.18;;;;;;;9.49;70.13;102272.47;4991802;28;20536;-86
2022/03/14 08:43:45;;;;;;;20.38;10.75;;;;;;;9.49;70.46;102269.88;4991473;28;20058;-87
2022/03/14 08:46:12;;;;;;;17.88;11.50;;;;;;;9.53;70.63;102276.81;4990160;28;20030;-87
2022/03/14 08:48:37;;;;;;;17.52;11.45;;;;;;;9.56;70.33;102277.69;4991464;28;20030;-86
2022/03/14 08:51:03;;;;;;;26.20;13.38;;;;;;;9.60;70.16;102288.97;4991225;28;20370;-86
2022/03/14 08:53:29;;;;;;;20.27;11.68;;;;;;;9.64;69.91;102295.91;4990530;28;20092;-86
2022/03/14 08:55:55;;;;;;;21.17;11.90;;;;;;;9.67;69.49;102295.03;4992437;28;20469;-86
2022/03/14 08:58:21;;;;;;;20.38;11.65;;;;;;;9.72;69.71;102298.53;4992898;28;20477;-87
2022/03/14 09:00:47;;;;;;;19.13;11.13;;;;;;;9.79;69.52;102299.41;4991327;28;20026;-86
2022/03/14 09:03:12;;;;;;;22.80;11.32;;;;;;;9.89;69.64;102297.66;4987620;28;20092;-87
2022/03/14 09:05:38;;;;;;;17.95;10.52;;;;;;;9.95;69.22;102300.25;4992378;28;20437;-88
2022/03/14 09:08:04;;;;;;;16.30;10.45;;;;;;;10.02;68.68;102302.84;4991627;28;20022;-87
2022/03/14 09:10:36;;;;;;;19.75;10.40;;;;;;;10.09;68.43;102318.47;4991941;28;20037;-87
2022/03/14 09:13:02;;;;;;;19.63;9.77;;;;;;;10.11;68.29;102321.94;4992806;28;20026;-86
2022/03/14 09:15:27;;;;;;;22.77;10.35;;;;;;;10.11;68.48;102322.78;4992035;28;20023;-87
2022/03/14 09:17:56;;;;;;;21.83;10.05;;;;;;;10.12;68.60;102327.13;4991849;28;20038;-88
2022/03/14 09:20:23;;;;;;;17.50;9.77;;;;;;;10.17;68.44;102317.59;4991440;28;20393;-87
2022/03/14 09:22:49;;;;;;;17.90;10.15;;;;;;;10.20;67.95;102337.53;4992129;28;20026;-86
2022/03/14 09:25:15;;;;;;;24.92;9.90;;;;;;;10.22;68.12;102340.16;4991491;28;20041;-87
2022/03/14 09:27:41;;;;;;;18.98;9.88;;;;;;;10.22;67.70;102345.34;4993873;28;20030;-87
2022/03/14 09:30:08;;;;;;;14.77;9.63;;;;;;;10.21;67.88;102343.63;4986441;28;20102;-87
2022/03/14 09:32:33;;;;;;;19.60;9.70;;;;;;;10.21;68.08;102346.22;4991775;28;20030;-87
2022/03/14 09:34:59;;;;;;;17.45;9.48;;;;;;;10.27;67.67;102348.78;4991998;28;20018;-87
2022/03/14 09:37:25;;;;;;;18.45;9.48;;;;;;;10.32;68.00;102360.06;4984824;28;20046;-85
2022/03/14 09:39:52;;;;;;;14.80;8.60;;;;;;;10.38;67.68;102347.13;4990645;28;20054;-87
2022/03/14 09:42:21;;;;;;;19.52;8.93;;;;;;;10.48;67.91;102354.03;4991485;28;20036;-87
2022/03/14 09:44:53;;;;;;;15.15;8.85;;;;;;;10.61;67.03;102360.09;4981438;28;20030;-86
2022/03/14 09:47:24;;;;;;;15.35;8.90;;;;;;;10.70;66.68;102364.41;4990614;28;20462;-87
2022/03/14 09:49:54;;;;;;;13.98;8.90;;;;;;;10.82;66.44;102375.66;4992008;28;20027;-88
2022/03/14 09:52:20;;;;;;;15.05;8.60;;;;;;;10.92;66.21;102382.59;4986023;28;20026;-87
2022/03/14 09:54:46;;;;;;;18.38;8.38;;;;;;;10.99;65.67;102386.91;4988982;28;20029;-87
2022/03/14 09:57:12;;;;;;;13.30;8.35;;;;;;;11.03;65.11;102398.19;4988965;28;20030;-88
2022/03/14 09:59:39;;;;;;;13.00;7.45;;;;;;;11.06;64.85;102404.28;4989412;28;20400;-87
2022/03/14 10:02:04;;;;;;;13.82;8.55;;;;;;;11.08;65.55;102407.75;4991337;28;20113;-86
2022/03/14 10:04:30;;;;;;;14.88;8.20;;;;;;;11.11;64.76;102404.25;4993653;28;20054;-86
2022/03/14 10:06:55;;;;;;;16.35;7.45;;;;;;;11.17;64.32;102405.97;4988411;28;20029;-87
2022/03/14 10:09:20;;;;;;;13.10;7.75;;;;;;;11.19;63.41;102410.28;4993257;28;20038;-86
2022/03/14 10:11:45;;;;;;;16.00;7.13;;;;;;;11.21;63.03;102410.31;4992699;28;20425;-86
2022/03/14 10:14:17;;;;;;;15.13;6.93;;;;;;;11.21;63.26;102412.91;4993085;28;20436;-87
2022/03/14 10:16:44;;;;;;;14.52;7.03;;;;;;;11.20;63.40;102408.56;4994965;28;20434;-86
2022/03/14 10:19:10;;;;;;;15.82;7.13;;;;;;;11.26;63.70;102410.28;4985429;28;20019;-87
2022/03/14 10:21:37;;;;;;;10.32;6.55;;;;;;;11.30;62.90;102412.00;4994921;28;20026;-88
2022/03/14 10:24:05;;;;;;;17.48;6.70;;;;;;;11.35;63.04;102412.88;4994716;28;20034;-87
2022/03/14 10:26:33;;;;;;;14.20;6.72;;;;;;;11.39;63.08;102401.53;4993670;28;20022;-87
2022/03/14 10:29:00;;;;;;;12.38;6.93;;;;;;;11.43;62.83;102412.84;4993738;28;20170;-87
2022/03/14 10:31:34;;;;;;;10.80;5.95;;;;;;;11.50;63.65;102414.53;5004863;28;20022;-87
2022/03/14 10:34:05;;;;;;;12.63;6.10;;;;;;;11.62;63.21;102417.06;4993454;28;20030;-87
2022/03/14 10:36:43;;;;;;;12.15;6.22;;;;;;;11.71;62.33;102428.34;4993702;28;20490;-88
2022/03/14 10:39:13;;;;;;;12.68;6.43;;;;;;;11.80;61.04;102430.88;4995625;28;20034;-87
2022/03/14 10:41:40;;;;;;;17.75;6.85;;;;;;;11.89;61.13;102435.19;4993897;28;20374;-87
2022/03/14 10:44:06;;;;;;;12.30;6.18;;;;;;;11.94;60.98;102447.34;4994739;28;20018;-86
2022/03/14 10:46:32;;;;;;;10.73;5.82;;;;;;;11.98;59.78;102433.44;4993683;28;20093;-87
2022/03/14 10:48:58;;;;;;;12.05;6.32;;;;;;;11.94;60.37;102442.13;4992899;28;20026;-87
2022/03/14 10:51:23;;;;;;;10.90;5.55;;;;;;;11.95;60.36;102443.88;4993444;28;20026;-86
2022/03/14 10:53:49;;;;;;;9.65;6.30;;;;;;;11.92;59.90;102441.28;4993616;28;20019;-87
2022/03/14 10:56:15;;;;;;;11.43;5.63;;;;;;;11.88;59.99;102444.78;4995150;28;20023;-88
2022/03/14 10:58:40;;;;;;;13.75;6.65;;;;;;;11.86;59.89;102443.06;4982264;28;20554;-88
2022/03/14 11:01:10;;;;;;;11.68;5.75;;;;;;;11.83;60.53;102449.13;4992894;28;20030;-86
2022/03/14 11:03:41;;;;;;;9.85;5.50;;;;;;;11.78;60.27;102446.56;4994127;28;20030;-87
2022/03/14 11:06:11;;;;;;;11.30;7.00;;;;;;;11.73;60.80;102450.06;4991882;28;20065;-86
2022/03/14 11:08:45;;;;;;;12.27;7.22;;;;;;;11.65;60.61;102442.28;4992501;28;20033;-87
2022/03/14 11:11:22;;;;;;;15.80;6.50;;;;;;;11.68;61.03;102447.47;4991152;28;20509;-87
2022/03/14 11:13:49;;;;;;;9.20;5.55;;;;;;;11.80;59.81;102454.34;4993513;28;20022;-88
2022/03/14 11:16:20;;;;;;;9.07;4.85;;;;;;;11.81;59.09;102459.59;4993798;28;20026;-86
2022/03/14 11:18:46;;;;;;;11.23;5.25;;;;;;;11.82;58.81;102452.59;4993863;28;20027;-87
2022/03/14 11:21:13;;;;;;;12.88;5.53;;;;;;;11.84;58.96;102451.75;4993414;28;20032;-88